createdAt,value
2019-02-22T00:02:37.281Z,1999.90
2019-02-22T00:07:40.660Z,1999.90
2019-02-22T00:12:43.945Z,1999.90
2019-02-22T00:17:47.330Z,1999.90
2019-02-22T00:22:50.691Z,1999.90
2019-02-22T00:27:53.982Z,1999.90
2019-02-22T00:32:57.601Z,1999.90
2019-02-22T00:38:00.885Z,1999.90
2019-02-22T00:43:04.173Z,1999.90
2019-02-22T00:48:07.460Z,1999.90
2019-02-22T00:53:10.865Z,1999.90
2019-02-22T00:58:14.165Z,1999.90
2019-02-22T01:03:17.494Z,1999.90
2019-02-22T01:08:21.097Z,1999.90
2019-02-22T01:13:24.466Z,1999.90
2019-02-22T01:18:27.775Z,1999.90
2019-02-22T01:23:31.501Z,1999.90
2019-02-22T01:28:34.805Z,1999.90
2019-02-22T01:33:38.114Z,1999.90
2019-02-22T01:38:41.579Z,1999.90
2019-02-22T01:43:45.655Z,1999.90
2019-02-22T01:48:48.953Z,1999.90
2019-02-22T01:53:54.081Z,1999.90
2019-02-22T01:58:57.775Z,1999.90
2019-02-22T02:04:01.081Z,1999.90
2019-02-22T02:09:05.254Z,1999.90
2019-02-22T02:14:08.549Z,1999.90
2019-02-22T02:19:11.836Z,1957.43
2019-02-22T02:24:15.130Z,1999.90
2019-02-22T02:29:18.405Z,1999.90
2019-02-22T02:34:21.758Z,1736.97
2019-02-22T02:39:25.055Z,1999.90
2019-02-22T02:44:28.745Z,1298.10
2019-02-22T02:49:32.037Z,1740.63
2019-02-22T02:54:35.738Z,1516.20
2019-02-22T02:59:39.438Z,1764.13
2019-02-22T03:04:42.713Z,1999.90
2019-02-22T03:09:45.993Z,1825.03
2019-02-22T03:14:49.667Z,1999.90
2019-02-22T03:19:53.362Z,1999.90
2019-02-22T03:24:56.683Z,1999.90
2019-02-22T03:30:00.697Z,1999.90
2019-02-22T03:35:04.391Z,1999.90
2019-02-22T03:40:08.192Z,1999.90
2019-02-22T03:45:11.535Z,1999.90
2019-02-22T03:50:14.847Z,1999.90
2019-02-22T03:55:18.150Z,1486.43
2019-02-22T04:00:21.442Z,1999.90
2019-02-22T04:05:25.153Z,1900.50
2019-02-22T04:10:28.459Z,1999.90
2019-02-22T04:15:32.098Z,1999.90
2019-02-22T04:20:35.650Z,1999.90
2019-02-22T04:25:38.957Z,1999.90
2019-02-22T04:30:42.657Z,1999.90
2019-02-22T04:35:45.935Z,1999.90
2019-02-22T04:40:49.630Z,1999.90
2019-02-22T04:45:52.912Z,1999.90
2019-02-22T04:50:56.190Z,1999.90
2019-02-22T04:55:59.474Z,1999.90
2019-02-22T05:01:02.771Z,1999.90
2019-02-22T05:06:08.445Z,1999.90
2019-02-22T05:11:11.804Z,1753.23
2019-02-22T05:16:15.494Z,1999.90
2019-02-22T05:21:18.772Z,1566.70
2019-02-22T05:26:22.647Z,1999.90
2019-02-22T05:31:26.017Z,1999.90
2019-02-22T05:36:29.318Z,1323.90
2019-02-22T05:41:33.115Z,1999.90
2019-02-22T05:46:36.386Z,1657.10
2019-02-22T05:51:39.660Z,1878.60
2019-02-22T05:56:43.211Z,1999.90
2019-02-22T06:01:46.494Z,1999.90
2019-02-22T06:06:49.771Z,1161.27
2019-02-22T06:11:53.477Z,1999.90
2019-02-22T06:16:56.759Z,1999.90
2019-02-22T06:22:00.119Z,1962.23
2019-02-22T06:27:03.798Z,1677.53
2019-02-22T06:32:07.057Z,923.53
2019-02-22T06:37:10.608Z,1999.90
2019-02-22T06:42:13.882Z,789.27
2019-02-22T06:47:17.590Z,1945.77
2019-02-22T06:52:20.872Z,841.17
2019-02-22T06:57:24.320Z,779.13
2019-02-22T07:02:28.066Z,1496.60
2019-02-22T07:07:31.757Z,1051.90
2019-02-22T07:12:38.683Z,1408.70
2019-02-22T07:17:41.962Z,648.80
2019-02-22T07:22:45.250Z,404.83
2019-02-22T07:27:48.574Z,1630.53
2019-02-22T07:32:51.903Z,1097.30
2019-02-22T07:37:55.201Z,118.00
2019-02-22T07:43:07.711Z,332.13
2019-02-22T07:48:04.266Z,883.10
2019-02-22T07:53:07.549Z,324.80
2019-02-22T07:58:11.094Z,510.30
2019-02-22T08:03:14.370Z,220.73
2019-02-22T08:08:17.676Z,356.40
2019-02-22T08:13:21.458Z,544.90
2019-02-22T08:18:24.930Z,759.63
2019-02-22T08:23:28.253Z,236.70
2019-02-22T08:28:31.553Z,150.27
2019-02-22T08:33:34.841Z,300.63
2019-02-22T08:38:38.157Z,433.57
2019-02-22T08:43:41.466Z,313.13
2019-02-22T08:48:44.781Z,685.20
2019-02-22T08:53:48.098Z,1145.53
2019-02-22T08:58:51.387Z,387.90
2019-02-22T09:03:55.133Z,428.33
2019-02-22T09:08:58.874Z,644.70
2019-02-22T09:14:02.848Z,165.70
2019-02-22T09:19:06.123Z,337.47
2019-02-22T09:24:09.991Z,137.57
2019-02-22T09:29:13.757Z,256.93
2019-02-22T09:34:17.242Z,138.23
2019-02-22T09:39:20.691Z,686.60
2019-02-22T09:44:30.260Z,808.83
2019-02-22T09:49:38.078Z,187.03
2019-02-22T09:54:45.644Z,153.67
2019-02-22T09:59:51.556Z,290.27
2019-02-22T10:04:56.811Z,191.63
2019-02-22T10:10:02.800Z,146.00
2019-02-22T10:15:07.188Z,139.40
2019-02-22T10:20:12.215Z,199.97
2019-02-22T10:25:24.573Z,160.13
2019-02-22T10:30:30.166Z,517.70
2019-02-22T10:35:34.312Z,125.63
2019-02-22T10:40:43.858Z,393.30
2019-02-22T10:45:48.145Z,106.90
2019-02-22T10:50:59.065Z,115.27
2019-02-22T10:56:01.169Z,108.03
2019-02-22T11:01:05.331Z,201.63
2019-02-22T11:06:08.639Z,114.37
2019-02-22T11:11:13.494Z,115.27
2019-02-22T11:16:18.190Z,182.63
2019-02-22T11:21:23.225Z,150.70
2019-02-22T11:26:27.192Z,145.93
2019-02-22T11:31:33.505Z,135.70
2019-02-22T11:36:42.910Z,147.37
2019-02-22T11:41:49.668Z,246.03
2019-02-22T11:46:53.905Z,245.50
2019-02-22T11:51:57.334Z,134.00
2019-02-22T11:57:00.630Z,117.63
2019-02-22T12:02:04.001Z,137.33
2019-02-22T12:07:07.322Z,118.07
2019-02-22T12:12:10.832Z,106.20
2019-02-22T12:17:14.138Z,106.80
2019-02-22T12:22:17.405Z,123.40
2019-02-22T12:27:20.694Z,270.17
2019-02-22T12:32:23.978Z,113.77
2019-02-22T12:37:27.691Z,113.93
2019-02-22T12:42:30.991Z,107.33
2019-02-22T12:47:34.913Z,140.90
2019-02-22T12:52:38.464Z,112.60
2019-02-22T12:57:41.841Z,112.77
2019-02-22T13:02:45.431Z,108.90
2019-02-22T13:07:48.700Z,124.57
2019-02-22T13:12:52.390Z,144.87
2019-02-22T13:17:55.693Z,108.53
2019-02-22T13:22:59.414Z,117.77
2019-02-22T13:28:03.379Z,133.73
2019-02-22T13:33:07.158Z,119.07
2019-02-22T13:38:10.421Z,107.17
2019-02-22T13:43:13.717Z,110.13
2019-02-22T13:48:17.016Z,124.60
2019-02-22T13:53:20.316Z,106.87
2019-02-22T13:58:23.696Z,121.20
2019-02-22T14:03:27.081Z,108.80
2019-02-22T14:08:30.405Z,113.17
2019-02-22T14:13:33.697Z,109.30
2019-02-22T14:18:36.992Z,137.73
2019-02-22T14:23:40.293Z,105.30
2019-02-22T14:28:44.026Z,109.43
2019-02-22T14:33:47.314Z,111.23
2019-02-22T14:38:51.129Z,110.20
2019-02-22T14:43:54.497Z,102.93
2019-02-22T14:48:57.790Z,104.23
2019-02-22T14:54:01.855Z,107.67
2019-02-22T14:59:05.692Z,103.27
2019-02-22T15:04:10.010Z,104.40
2019-02-22T15:09:13.463Z,125.37
2019-02-22T15:14:18.128Z,104.73
2019-02-22T15:19:22.304Z,105.80
2019-02-22T15:24:26.318Z,111.83
2019-02-22T15:29:30.046Z,105.67
2019-02-22T15:34:33.810Z,106.57
2019-02-22T15:39:37.603Z,111.40
2019-02-22T15:44:40.925Z,115.00
2019-02-22T15:49:44.353Z,117.67
2019-02-22T15:54:48.410Z,108.57
2019-02-22T15:59:51.773Z,103.77
2019-02-22T16:05:02.575Z,106.60
2019-02-22T16:10:06.069Z,106.60
2019-02-22T16:15:10.490Z,107.63
2019-02-22T16:20:13.800Z,111.40
2019-02-22T16:25:35.815Z,108.50
2019-02-22T16:30:39.513Z,112.63
2019-02-22T16:35:43.509Z,217.73
2019-02-22T16:40:47.072Z,116.73
2019-02-22T16:45:50.354Z,106.30
2019-02-22T16:50:54.512Z,106.27
2019-02-22T16:55:57.804Z,108.60
2019-02-22T17:01:01.075Z,117.97
2019-02-22T17:06:04.606Z,111.67
2019-02-22T17:11:07.949Z,109.03
2019-02-22T17:16:11.494Z,108.10
2019-02-22T17:21:14.765Z,104.60
2019-02-22T17:26:18.140Z,101.70
2019-02-22T17:31:21.915Z,102.90
2019-02-22T17:36:27.205Z,100.27
2019-02-22T17:41:52.419Z,101.10
2019-02-22T17:47:00.337Z,103.53
2019-02-22T17:52:03.665Z,109.80
2019-02-22T17:57:11.762Z,117.60
2019-02-22T18:02:18.869Z,118.80
2019-02-22T18:07:22.516Z,126.10
2019-02-22T18:12:27.204Z,122.60
2019-02-22T18:17:37.473Z,120.67
2019-02-22T18:22:43.560Z,110.10
2019-02-22T18:27:47.536Z,105.73
2019-02-22T18:32:51.557Z,102.20
2019-02-22T18:37:55.490Z,100.57
2019-02-22T18:42:59.202Z,100.70
2019-02-22T18:48:02.937Z,100.40
2019-02-22T18:53:06.726Z,116.13
2019-02-22T18:58:10.689Z,116.23
2019-02-22T19:03:14.440Z,117.57
2019-02-22T19:08:18.226Z,115.83
2019-02-22T19:13:21.902Z,111.27
2019-02-22T19:18:25.649Z,116.10
2019-02-22T19:23:29.549Z,129.93
2019-02-22T19:28:33.253Z,127.53
2019-02-22T19:33:37.265Z,128.03
2019-02-22T19:38:41.018Z,136.43
2019-02-22T19:43:44.729Z,140.67
2019-02-22T19:48:48.493Z,128.10
2019-02-22T19:53:52.202Z,126.50
2019-02-22T19:58:55.894Z,122.93
2019-02-22T20:03:59.637Z,119.03
2019-02-22T20:09:27.481Z,123.73
2019-02-22T20:14:31.709Z,123.53
2019-02-22T20:19:35.773Z,126.07
2019-02-22T20:24:39.891Z,118.20
2019-02-22T20:29:43.937Z,119.67
2019-02-22T20:34:47.630Z,126.37
2019-02-22T20:40:07.292Z,122.23
2019-02-22T20:45:11.232Z,129.97
2019-02-22T20:51:02.211Z,138.60
2019-02-22T20:56:13.726Z,148.20
2019-02-22T21:01:17.805Z,131.47
2019-02-22T21:06:21.477Z,113.57
2019-02-22T21:11:25.243Z,121.10
2019-02-22T21:16:29.221Z,120.40
2019-02-22T21:21:32.897Z,126.77
2019-02-22T21:26:36.619Z,126.30
2019-02-22T21:31:40.337Z,122.70
2019-02-22T21:36:44.317Z,115.60
2019-02-22T21:41:48.325Z,113.27
2019-02-22T21:46:51.997Z,120.27
2019-02-22T21:51:55.723Z,107.40
2019-02-22T21:56:59.410Z,106.17
2019-02-22T22:02:03.942Z,114.27
2019-02-22T22:07:10.228Z,104.00
2019-02-22T22:12:14.355Z,107.07
2019-02-22T22:17:18.122Z,106.70
2019-02-22T22:22:22.317Z,108.10
2019-02-22T22:27:26.466Z,114.47
2019-02-22T22:32:30.479Z,115.57
2019-02-22T22:37:34.360Z,111.17
2019-02-22T22:42:38.226Z,113.07
2019-02-22T22:47:42.342Z,111.57
2019-02-22T22:52:46.161Z,113.60
2019-02-22T22:57:49.944Z,115.77
2019-02-22T23:02:53.866Z,111.23
2019-02-22T23:07:57.615Z,110.90
2019-02-22T23:13:01.297Z,111.60
2019-02-22T23:18:05.133Z,105.37
2019-02-22T23:23:09.177Z,109.57
2019-02-22T23:28:13.093Z,112.10
2019-02-22T23:33:16.762Z,105.57
2019-02-22T23:38:20.430Z,107.10
2019-02-22T23:43:24.099Z,108.77
2019-02-22T23:48:27.762Z,110.57
2019-02-22T23:53:31.433Z,111.90
2019-02-22T23:58:35.113Z,114.80
